sensor_id;sensor_type;location;lat;lon;timestamp;temperature;humidity
48998;DHT22;34807;51.456;7.244;2022-07-22T00:01:38;20.00;83.20
48998;DHT22;34807;51.456;7.244;2022-07-22T00:04:04;20.00;83.20
48998;DHT22;34807;51.456;7.244;2022-07-22T00:06:30;20.00;83.00
48998;DHT22;34807;51.456;7.244;2022-07-22T00:08:55;20.10;83.10
48998;DHT22;34807;51.456;7.244;2022-07-22T00:11:21;20.00;83.10
48998;DHT22;34807;51.456;7.244;2022-07-22T00:13:47;20.00;83.00
48998;DHT22;34807;51.456;7.244;2022-07-22T00:16:13;20.00;83.00
48998;DHT22;34807;51.456;7.244;2022-07-22T00:18:39;20.00;82.80
48998;DHT22;34807;51.456;7.244;2022-07-22T00:21:04;20.00;83.00
48998;DHT22;34807;51.456;7.244;2022-07-22T00:23:30;20.00;82.90
48998;DHT22;34807;51.456;7.244;2022-07-22T00:25:55;19.90;83.00
48998;DHT22;34807;51.456;7.244;2022-07-22T00:28:21;20.00;83.30
48998;DHT22;34807;51.456;7.244;2022-07-22T00:30:46;20.00;83.10
48998;DHT22;34807;51.456;7.244;2022-07-22T00:33:12;19.90;83.20
48998;DHT22;34807;51.456;7.244;2022-07-22T00:35:37;19.90;83.20
48998;DHT22;34807;51.456;7.244;2022-07-22T00:38:03;20.00;83.30
48998;DHT22;34807;51.456;7.244;2022-07-22T00:40:28;19.90;83.30
48998;DHT22;34807;51.456;7.244;2022-07-22T00:42:54;19.90;83.30
48998;DHT22;34807;51.456;7.244;2022-07-22T00:45:20;19.90;83.20
48998;DHT22;34807;51.456;7.244;2022-07-22T00:47:45;19.90;83.20
48998;DHT22;34807;51.456;7.244;2022-07-22T00:50:11;19.90;83.30
48998;DHT22;34807;51.456;7.244;2022-07-22T00:52:37;19.90;83.40
48998;DHT22;34807;51.456;7.244;2022-07-22T00:55:03;19.90;83.30
48998;DHT22;34807;51.456;7.244;2022-07-22T00:57:29;19.90;83.10
48998;DHT22;34807;51.456;7.244;2022-07-22T00:59:54;19.90;83.40
48998;DHT22;34807;51.456;7.244;2022-07-22T01:02:20;19.90;83.30
48998;DHT22;34807;51.456;7.244;2022-07-22T01:04:45;19.90;83.30
48998;DHT22;34807;51.456;7.244;2022-07-22T01:07:11;19.80;83.00
48998;DHT22;34807;51.456;7.244;2022-07-22T01:09:36;19.90;83.30
48998;DHT22;34807;51.456;7.244;2022-07-22T01:12:02;19.80;83.20
48998;DHT22;34807;51.456;7.244;2022-07-22T01:14:28;19.80;83.10
48998;DHT22;34807;51.456;7.244;2022-07-22T01:16:53;19.80;83.50
48998;DHT22;34807;51.456;7.244;2022-07-22T01:19:19;19.80;83.20
48998;DHT22;34807;51.456;7.244;2022-07-22T01:21:44;19.80;83.20
48998;DHT22;34807;51.456;7.244;2022-07-22T01:24:10;19.80;83.30
48998;DHT22;34807;51.456;7.244;2022-07-22T01:26:36;19.80;83.10
48998;DHT22;34807;51.456;7.244;2022-07-22T01:29:01;19.80;83.20
48998;DHT22;34807;51.456;7.244;2022-07-22T01:31:27;19.80;83.20
48998;DHT22;34807;51.456;7.244;2022-07-22T01:33:53;19.80;83.30
48998;DHT22;34807;51.456;7.244;2022-07-22T01:36:19;19.70;83.20
48998;DHT22;34807;51.456;7.244;2022-07-22T01:38:44;19.70;83.90
48998;DHT22;34807;51.456;7.244;2022-07-22T01:41:10;19.70;83.10
48998;DHT22;34807;51.456;7.244;2022-07-22T01:43:36;19.70;83.30
48998;DHT22;34807;51.456;7.244;2022-07-22T01:46:01;19.70;83.00
48998;DHT22;34807;51.456;7.244;2022-07-22T01:48:27;19.70;83.00
48998;DHT22;34807;51.456;7.244;2022-07-22T01:50:53;19.70;83.00
48998;DHT22;34807;51.456;7.244;2022-07-22T01:53:18;19.70;83.20
48998;DHT22;34807;51.456;7.244;2022-07-22T01:55:44;19.70;83.20
48998;DHT22;34807;51.456;7.244;2022-07-22T01:58:10;19.70;83.20
48998;DHT22;34807;51.456;7.244;2022-07-22T02:00:35;19.70;83.20
48998;DHT22;34807;51.456;7.244;2022-07-22T02:03:01;19.70;83.20
48998;DHT22;34807;51.456;7.244;2022-07-22T02:05:27;19.70;83.20
48998;DHT22;34807;51.456;7.244;2022-07-22T02:07:53;19.70;83.20
48998;DHT22;34807;51.456;7.244;2022-07-22T02:10:18;19.70;83.40
48998;DHT22;34807;51.456;7.244;2022-07-22T02:12:44;19.60;83.20
48998;DHT22;34807;51.456;7.244;2022-07-22T02:15:10;19.60;83.20
48998;DHT22;34807;51.456;7.244;2022-07-22T02:17:36;19.60;83.20
48998;DHT22;34807;51.456;7.244;2022-07-22T02:20:02;19.60;83.10
48998;DHT22;34807;51.456;7.244;2022-07-22T02:22:27;19.60;83.20
48998;DHT22;34807;51.456;7.244;2022-07-22T02:24:53;19.60;83.20
48998;DHT22;34807;51.456;7.244;2022-07-22T02:27:18;19.60;83.20
48998;DHT22;34807;51.456;7.244;2022-07-22T02:29:44;19.60;83.40
48998;DHT22;34807;51.456;7.244;2022-07-22T02:32:09;19.60;84.00
48998;DHT22;34807;51.456;7.244;2022-07-22T02:34:35;19.60;83.50
48998;DHT22;34807;51.456;7.244;2022-07-22T02:37:00;19.60;83.50
48998;DHT22;34807;51.456;7.244;2022-07-22T02:39:26;19.60;83.30
48998;DHT22;34807;51.456;7.244;2022-07-22T02:41:51;19.60;83.30
48998;DHT22;34807;51.456;7.244;2022-07-22T02:44:17;19.60;83.40
48998;DHT22;34807;51.456;7.244;2022-07-22T02:46:42;19.60;83.30
48998;DHT22;34807;51.456;7.244;2022-07-22T02:49:08;19.50;83.30
48998;DHT22;34807;51.456;7.244;2022-07-22T02:51:33;19.50;83.40
48998;DHT22;34807;51.456;7.244;2022-07-22T02:53:59;19.50;83.30
48998;DHT22;34807;51.456;7.244;2022-07-22T02:56:24;19.50;83.50
48998;DHT22;34807;51.456;7.244;2022-07-22T02:58:50;19.50;83.50
48998;DHT22;34807;51.456;7.244;2022-07-22T03:01:18;19.50;83.60
48998;DHT22;34807;51.456;7.244;2022-07-22T03:03:44;19.50;83.50
48998;DHT22;34807;51.456;7.244;2022-07-22T03:06:10;19.50;83.30
48998;DHT22;34807;51.456;7.244;2022-07-22T03:08:36;19.50;83.40
48998;DHT22;34807;51.456;7.244;2022-07-22T03:11:01;19.50;83.40
48998;DHT22;34807;51.456;7.244;2022-07-22T03:13:27;19.50;83.60
48998;DHT22;34807;51.456;7.244;2022-07-22T03:15:52;19.50;83.50
48998;DHT22;34807;51.456;7.244;2022-07-22T03:18:18;19.50;83.50
48998;DHT22;34807;51.456;7.244;2022-07-22T03:20:43;19.40;83.70
48998;DHT22;34807;51.456;7.244;2022-07-22T03:23:09;19.40;83.70
48998;DHT22;34807;51.456;7.244;2022-07-22T03:25:34;19.40;83.60
48998;DHT22;34807;51.456;7.244;2022-07-22T03:28:00;19.50;83.70
48998;DHT22;34807;51.456;7.244;2022-07-22T03:30:25;19.40;83.50
48998;DHT22;34807;51.456;7.244;2022-07-22T03:32:51;19.40;83.50
48998;DHT22;34807;51.456;7.244;2022-07-22T03:35:17;19.40;83.60
48998;DHT22;34807;51.456;7.244;2022-07-22T03:37:42;19.40;83.50
48998;DHT22;34807;51.456;7.244;2022-07-22T03:40:09;19.40;83.90
48998;DHT22;34807;51.456;7.244;2022-07-22T03:42:35;19.40;83.80
48998;DHT22;34807;51.456;7.244;2022-07-22T03:45:00;19.40;83.60
48998;DHT22;34807;51.456;7.244;2022-07-22T03:47:26;19.40;83.60
48998;DHT22;34807;51.456;7.244;2022-07-22T03:49:52;19.40;83.80
48998;DHT22;34807;51.456;7.244;2022-07-22T03:52:17;19.40;83.60
48998;DHT22;34807;51.456;7.244;2022-07-22T03:54:43;19.40;83.80
48998;DHT22;34807;51.456;7.244;2022-07-22T03:57:09;19.30;84.30
48998;DHT22;34807;51.456;7.244;2022-07-22T03:59:35;19.30;83.60
48998;DHT22;34807;51.456;7.244;2022-07-22T04:02:00;19.30;83.70
48998;DHT22;34807;51.456;7.244;2022-07-22T04:04:26;19.30;83.60
48998;DHT22;34807;51.456;7.244;2022-07-22T04:06:52;19.30;83.90
48998;DHT22;34807;51.456;7.244;2022-07-22T04:09:17;19.30;83.90
48998;DHT22;34807;51.456;7.244;2022-07-22T04:11:43;19.30;83.80
48998;DHT22;34807;51.456;7.244;2022-07-22T04:14:09;19.30;83.70
48998;DHT22;34807;51.456;7.244;2022-07-22T04:16:34;19.30;83.70
48998;DHT22;34807;51.456;7.244;2022-07-22T04:19:00;19.30;83.80
48998;DHT22;34807;51.456;7.244;2022-07-22T04:21:26;19.30;83.70
48998;DHT22;34807;51.456;7.244;2022-07-22T04:23:52;19.30;83.70
48998;DHT22;34807;51.456;7.244;2022-07-22T04:26:18;19.30;83.80
48998;DHT22;34807;51.456;7.244;2022-07-22T04:28:43;19.30;83.80
48998;DHT22;34807;51.456;7.244;2022-07-22T04:31:09;19.20;83.80
48998;DHT22;34807;51.456;7.244;2022-07-22T04:33:34;19.20;83.90
48998;DHT22;34807;51.456;7.244;2022-07-22T04:36:00;19.30;84.00
48998;DHT22;34807;51.456;7.244;2022-07-22T04:38:25;19.30;83.90
48998;DHT22;34807;51.456;7.244;2022-07-22T04:40:51;19.30;83.70
48998;DHT22;34807;51.456;7.244;2022-07-22T04:43:16;19.30;83.90
48998;DHT22;34807;51.456;7.244;2022-07-22T04:45:42;19.30;83.90
48998;DHT22;34807;51.456;7.244;2022-07-22T04:48:07;19.30;84.00
48998;DHT22;34807;51.456;7.244;2022-07-22T04:50:35;19.20;83.80
48998;DHT22;34807;51.456;7.244;2022-07-22T04:53:00;19.20;83.80
48998;DHT22;34807;51.456;7.244;2022-07-22T04:55:26;19.20;83.90
48998;DHT22;34807;51.456;7.244;2022-07-22T04:57:51;19.20;83.90
48998;DHT22;34807;51.456;7.244;2022-07-22T05:00:17;19.30;84.10
48998;DHT22;34807;51.456;7.244;2022-07-22T05:02:42;19.20;83.90
48998;DHT22;34807;51.456;7.244;2022-07-22T05:05:08;19.30;84.60
48998;DHT22;34807;51.456;7.244;2022-07-22T05:07:33;19.30;83.90
48998;DHT22;34807;51.456;7.244;2022-07-22T05:09:59;19.30;84.00
48998;DHT22;34807;51.456;7.244;2022-07-22T05:12:24;19.30;83.90
48998;DHT22;34807;51.456;7.244;2022-07-22T05:14:50;19.20;83.90
48998;DHT22;34807;51.456;7.244;2022-07-22T05:17:15;19.20;83.90
48998;DHT22;34807;51.456;7.244;2022-07-22T05:19:41;19.30;83.90
48998;DHT22;34807;51.456;7.244;2022-07-22T05:22:07;19.20;83.70
48998;DHT22;34807;51.456;7.244;2022-07-22T05:24:32;19.30;83.90
48998;DHT22;34807;51.456;7.244;2022-07-22T05:26:58;19.30;83.90
48998;DHT22;34807;51.456;7.244;2022-07-22T05:29:23;19.30;83.90
48998;DHT22;34807;51.456;7.244;2022-07-22T05:31:49;19.30;83.80
48998;DHT22;34807;51.456;7.244;2022-07-22T05:34:14;19.30;83.80
48998;DHT22;34807;51.456;7.244;2022-07-22T05:36:40;19.30;83.80
48998;DHT22;34807;51.456;7.244;2022-07-22T05:39:05;19.40;83.90
48998;DHT22;34807;51.456;7.244;2022-07-22T05:41:31;19.40;83.70
48998;DHT22;34807;51.456;7.244;2022-07-22T05:43:57;19.30;83.70
48998;DHT22;34807;51.456;7.244;2022-07-22T05:46:22;19.40;83.80
48998;DHT22;34807;51.456;7.244;2022-07-22T05:48:47;19.40;83.70
48998;DHT22;34807;51.456;7.244;2022-07-22T05:51:14;19.40;83.50
48998;DHT22;34807;51.456;7.244;2022-07-22T05:53:39;19.40;83.40
48998;DHT22;34807;51.456;7.244;2022-07-22T05:56:05;19.40;83.60
48998;DHT22;34807;51.456;7.244;2022-07-22T05:58:31;19.40;83.40
48998;DHT22;34807;51.456;7.244;2022-07-22T06:00:56;19.40;83.40
48998;DHT22;34807;51.456;7.244;2022-07-22T06:03:23;19.40;83.50
48998;DHT22;34807;51.456;7.244;2022-07-22T06:05:49;19.50;83.40
48998;DHT22;34807;51.456;7.244;2022-07-22T06:08:15;19.50;83.30
48998;DHT22;34807;51.456;7.244;2022-07-22T06:10:40;19.50;83.20
48998;DHT22;34807;51.456;7.244;2022-07-22T06:13:06;19.50;83.20
48998;DHT22;34807;51.456;7.244;2022-07-22T06:15:31;19.50;83.30
48998;DHT22;34807;51.456;7.244;2022-07-22T06:17:57;19.60;83.10
48998;DHT22;34807;51.456;7.244;2022-07-22T06:20:22;19.60;83.20
48998;DHT22;34807;51.456;7.244;2022-07-22T06:22:48;19.60;83.10
48998;DHT22;34807;51.456;7.244;2022-07-22T06:25:13;19.60;83.20
48998;DHT22;34807;51.456;7.244;2022-07-22T06:27:39;19.60;83.00
48998;DHT22;34807;51.456;7.244;2022-07-22T06:30:05;19.60;83.00
48998;DHT22;34807;51.456;7.244;2022-07-22T06:32:30;19.60;83.00
48998;DHT22;34807;51.456;7.244;2022-07-22T06:34:56;19.60;83.00
48998;DHT22;34807;51.456;7.244;2022-07-22T06:37:21;19.70;82.90
48998;DHT22;34807;51.456;7.244;2022-07-22T06:39:47;19.70;82.70
48998;DHT22;34807;51.456;7.244;2022-07-22T06:42:13;19.70;82.70
48998;DHT22;34807;51.456;7.244;2022-07-22T06:44:38;19.70;82.70
48998;DHT22;34807;51.456;7.244;2022-07-22T06:47:04;19.70;82.60
48998;DHT22;34807;51.456;7.244;2022-07-22T06:49:29;19.70;82.70
48998;DHT22;34807;51.456;7.244;2022-07-22T06:51:55;19.70;82.70
48998;DHT22;34807;51.456;7.244;2022-07-22T06:54:21;19.70;82.70
48998;DHT22;34807;51.456;7.244;2022-07-22T06:56:46;19.70;82.70
48998;DHT22;34807;51.456;7.244;2022-07-22T06:59:12;19.70;82.80
48998;DHT22;34807;51.456;7.244;2022-07-22T07:01:37;19.80;82.80
48998;DHT22;34807;51.456;7.244;2022-07-22T07:04:03;19.80;82.60
48998;DHT22;34807;51.456;7.244;2022-07-22T07:06:28;19.80;82.60
48998;DHT22;34807;51.456;7.244;2022-07-22T07:08:54;19.80;82.50
48998;DHT22;34807;51.456;7.244;2022-07-22T07:11:20;19.90;82.40
48998;DHT22;34807;51.456;7.244;2022-07-22T07:13:45;19.80;82.40
48998;DHT22;34807;51.456;7.244;2022-07-22T07:16:10;19.90;82.30
48998;DHT22;34807;51.456;7.244;2022-07-22T07:18:36;19.90;82.40
48998;DHT22;34807;51.456;7.244;2022-07-22T07:21:03;19.90;82.30
48998;DHT22;34807;51.456;7.244;2022-07-22T07:23:28;19.90;82.40
48998;DHT22;34807;51.456;7.244;2022-07-22T07:25:54;19.90;82.30
48998;DHT22;34807;51.456;7.244;2022-07-22T07:28:19;20.00;82.20
48998;DHT22;34807;51.456;7.244;2022-07-22T07:30:45;20.00;82.30
48998;DHT22;34807;51.456;7.244;2022-07-22T07:33:10;20.00;82.10
48998;DHT22;34807;51.456;7.244;2022-07-22T07:35:36;20.00;82.10
48998;DHT22;34807;51.456;7.244;2022-07-22T07:38:02;20.00;81.90
48998;DHT22;34807;51.456;7.244;2022-07-22T07:40:27;20.10;81.90
48998;DHT22;34807;51.456;7.244;2022-07-22T07:42:53;20.10;82.00
48998;DHT22;34807;51.456;7.244;2022-07-22T07:45:18;20.10;81.90
48998;DHT22;34807;51.456;7.244;2022-07-22T07:47:44;20.10;81.80
48998;DHT22;34807;51.456;7.244;2022-07-22T07:50:10;20.10;81.80
48998;DHT22;34807;51.456;7.244;2022-07-22T07:52:37;20.10;81.80
48998;DHT22;34807;51.456;7.244;2022-07-22T07:55:03;20.10;81.60
48998;DHT22;34807;51.456;7.244;2022-07-22T07:57:29;20.20;81.60
48998;DHT22;34807;51.456;7.244;2022-07-22T07:59:54;20.20;81.50
48998;DHT22;34807;51.456;7.244;2022-07-22T08:02:19;20.20;81.30
48998;DHT22;34807;51.456;7.244;2022-07-22T08:04:45;20.20;81.30
48998;DHT22;34807;51.456;7.244;2022-07-22T08:07:10;20.20;81.20
48998;DHT22;34807;51.456;7.244;2022-07-22T08:09:36;20.20;81.10
48998;DHT22;34807;51.456;7.244;2022-07-22T08:12:03;20.20;81.10
48998;DHT22;34807;51.456;7.244;2022-07-22T08:14:28;20.30;80.90
48998;DHT22;34807;51.456;7.244;2022-07-22T08:16:54;20.30;81.50
48998;DHT22;34807;51.456;7.244;2022-07-22T08:19:19;20.30;80.70
48998;DHT22;34807;51.456;7.244;2022-07-22T08:21:45;20.30;80.60
48998;DHT22;34807;51.456;7.244;2022-07-22T08:24:10;20.30;80.50
48998;DHT22;34807;51.456;7.244;2022-07-22T08:26:36;20.40;80.40
48998;DHT22;34807;51.456;7.244;2022-07-22T08:29:02;20.40;80.20
48998;DHT22;34807;51.456;7.244;2022-07-22T08:31:28;20.40;80.10
48998;DHT22;34807;51.456;7.244;2022-07-22T08:33:54;20.50;80.00
48998;DHT22;34807;51.456;7.244;2022-07-22T08:36:19;20.50;79.90
48998;DHT22;34807;51.456;7.244;2022-07-22T08:38:45;20.50;79.90
48998;DHT22;34807;51.456;7.244;2022-07-22T08:41:10;20.50;79.80
48998;DHT22;34807;51.456;7.244;2022-07-22T08:43:36;20.50;79.70
48998;DHT22;34807;51.456;7.244;2022-07-22T08:46:04;20.60;79.80
48998;DHT22;34807;51.456;7.244;2022-07-22T08:48:30;20.60;79.80
48998;DHT22;34807;51.456;7.244;2022-07-22T08:50:57;20.60;79.70
48998;DHT22;34807;51.456;7.244;2022-07-22T08:53:23;20.60;79.70
48998;DHT22;34807;51.456;7.244;2022-07-22T08:55:48;20.60;79.70
48998;DHT22;34807;51.456;7.244;2022-07-22T08:58:14;20.60;79.60
48998;DHT22;34807;51.456;7.244;2022-07-22T09:00:40;20.70;79.70
48998;DHT22;34807;51.456;7.244;2022-07-22T09:03:19;20.70;79.70
48998;DHT22;34807;51.456;7.244;2022-07-22T09:05:47;20.70;79.50
48998;DHT22;34807;51.456;7.244;2022-07-22T09:08:13;20.70;79.50
48998;DHT22;34807;51.456;7.244;2022-07-22T09:10:39;20.70;79.40
48998;DHT22;34807;51.456;7.244;2022-07-22T09:13:05;20.70;79.40
48998;DHT22;34807;51.456;7.244;2022-07-22T09:15:32;20.80;79.40
48998;DHT22;34807;51.456;7.244;2022-07-22T09:17:59;20.80;79.40
48998;DHT22;34807;51.456;7.244;2022-07-22T09:20:25;20.80;79.30
48998;DHT22;34807;51.456;7.244;2022-07-22T09:22:51;20.80;79.20
48998;DHT22;34807;51.456;7.244;2022-07-22T09:27:43;20.80;79.10
48998;DHT22;34807;51.456;7.244;2022-07-22T09:30:11;20.80;79.00
48998;DHT22;34807;51.456;7.244;2022-07-22T09:32:41;20.90;78.90
48998;DHT22;34807;51.456;7.244;2022-07-22T09:35:07;20.90;78.80
48998;DHT22;34807;51.456;7.244;2022-07-22T09:37:33;20.90;78.70
48998;DHT22;34807;51.456;7.244;2022-07-22T09:40:20;20.90;78.70
48998;DHT22;34807;51.456;7.244;2022-07-22T09:42:45;20.90;78.60
48998;DHT22;34807;51.456;7.244;2022-07-22T09:45:11;21.00;78.60
48998;DHT22;34807;51.456;7.244;2022-07-22T09:47:36;21.00;78.60
48998;DHT22;34807;51.456;7.244;2022-07-22T09:50:12;21.00;78.50
48998;DHT22;34807;51.456;7.244;2022-07-22T09:52:38;21.00;78.30
48998;DHT22;34807;51.456;7.244;2022-07-22T09:55:06;21.10;78.90
48998;DHT22;34807;51.456;7.244;2022-07-22T09:57:32;21.10;78.10
48998;DHT22;34807;51.456;7.244;2022-07-22T09:59:57;21.20;78.00
48998;DHT22;34807;51.456;7.244;2022-07-22T10:02:23;21.20;77.80
48998;DHT22;34807;51.456;7.244;2022-07-22T10:04:48;21.20;77.70
48998;DHT22;34807;51.456;7.244;2022-07-22T10:07:14;21.20;77.70
48998;DHT22;34807;51.456;7.244;2022-07-22T10:09:40;21.20;77.70
48998;DHT22;34807;51.456;7.244;2022-07-22T10:12:08;21.20;77.70
48998;DHT22;34807;51.456;7.244;2022-07-22T10:14:33;21.30;77.90
48998;DHT22;34807;51.456;7.244;2022-07-22T10:16:59;21.30;78.00
48998;DHT22;34807;51.456;7.244;2022-07-22T10:19:25;21.30;77.90
48998;DHT22;34807;51.456;7.244;2022-07-22T10:21:50;21.30;77.90
48998;DHT22;34807;51.456;7.244;2022-07-22T10:24:16;21.30;77.80
48998;DHT22;34807;51.456;7.244;2022-07-22T10:34:38;21.30;77.60
48998;DHT22;34807;51.456;7.244;2022-07-22T10:37:04;21.30;77.40
48998;DHT22;34807;51.456;7.244;2022-07-22T10:40:24;21.40;77.40
48998;DHT22;34807;51.456;7.244;2022-07-22T10:45:30;21.40;77.10
48998;DHT22;34807;51.456;7.244;2022-07-22T10:47:57;21.40;76.90
48998;DHT22;34807;51.456;7.244;2022-07-22T10:53:22;21.50;76.70
48998;DHT22;34807;51.456;7.244;2022-07-22T10:56:06;21.50;76.60
48998;DHT22;34807;51.456;7.244;2022-07-22T11:01:01;21.60;76.10
48998;DHT22;34807;51.456;7.244;2022-07-22T11:03:29;21.70;76.10
48998;DHT22;34807;51.456;7.244;2022-07-22T11:05:55;21.70;76.00
48998;DHT22;34807;51.456;7.244;2022-07-22T11:08:26;21.80;76.00
48998;DHT22;34807;51.456;7.244;2022-07-22T11:10:52;21.80;75.90
48998;DHT22;34807;51.456;7.244;2022-07-22T11:13:41;21.90;76.00
48998;DHT22;34807;51.456;7.244;2022-07-22T11:16:13;21.90;75.90
48998;DHT22;34807;51.456;7.244;2022-07-22T11:21:11;21.90;75.90
48998;DHT22;34807;51.456;7.244;2022-07-22T11:23:39;21.90;76.00
48998;DHT22;34807;51.456;7.244;2022-07-22T11:26:05;21.90;76.00
48998;DHT22;34807;51.456;7.244;2022-07-22T11:28:31;21.90;76.00
48998;DHT22;34807;51.456;7.244;2022-07-22T11:31:06;21.90;76.10
48998;DHT22;34807;51.456;7.244;2022-07-22T11:33:32;21.90;76.10
48998;DHT22;34807;51.456;7.244;2022-07-22T11:36:04;21.90;76.10
48998;DHT22;34807;51.456;7.244;2022-07-22T11:38:43;21.90;76.10
48998;DHT22;34807;51.456;7.244;2022-07-22T11:41:09;21.90;76.10
48998;DHT22;34807;51.456;7.244;2022-07-22T11:43:38;21.90;76.10
48998;DHT22;34807;51.456;7.244;2022-07-22T11:46:04;21.90;76.00
48998;DHT22;34807;51.456;7.244;2022-07-22T11:48:29;21.90;76.00
48998;DHT22;34807;51.456;7.244;2022-07-22T11:50:59;21.90;75.90
48998;DHT22;34807;51.456;7.244;2022-07-22T11:53:24;21.90;75.70
48998;DHT22;34807;51.456;7.244;2022-07-22T11:55:50;22.00;75.60
48998;DHT22;34807;51.456;7.244;2022-07-22T11:58:15;22.00;75.50
48998;DHT22;34807;51.456;7.244;2022-07-22T12:00:41;22.10;75.40
48998;DHT22;34807;51.456;7.244;2022-07-22T12:03:07;22.10;75.20
48998;DHT22;34807;51.456;7.244;2022-07-22T12:05:33;22.20;75.20
48998;DHT22;34807;51.456;7.244;2022-07-22T12:07:59;22.20;74.90
48998;DHT22;34807;51.456;7.244;2022-07-22T12:10:25;22.30;74.80
48998;DHT22;34807;51.456;7.244;2022-07-22T12:12:51;22.40;74.70
48998;DHT22;34807;51.456;7.244;2022-07-22T12:15:16;22.50;74.50
48998;DHT22;34807;51.456;7.244;2022-07-22T12:17:42;22.60;74.10
48998;DHT22;34807;51.456;7.244;2022-07-22T12:20:11;22.60;74.00
48998;DHT22;34807;51.456;7.244;2022-07-22T12:22:44;22.70;73.90
48998;DHT22;34807;51.456;7.244;2022-07-22T12:25:09;22.70;73.80
48998;DHT22;34807;51.456;7.244;2022-07-22T12:27:35;22.70;73.90
48998;DHT22;34807;51.456;7.244;2022-07-22T12:30:00;22.70;73.70
48998;DHT22;34807;51.456;7.244;2022-07-22T12:32:36;22.80;73.70
48998;DHT22;34807;51.456;7.244;2022-07-22T12:35:02;22.80;73.60
48998;DHT22;34807;51.456;7.244;2022-07-22T12:37:33;22.80;73.40
48998;DHT22;34807;51.456;7.244;2022-07-22T12:42:25;23.00;72.60
48998;DHT22;34807;51.456;7.244;2022-07-22T12:44:52;23.10;72.50
48998;DHT22;34807;51.456;7.244;2022-07-22T12:47:37;23.20;72.20
48998;DHT22;34807;51.456;7.244;2022-07-22T12:52:47;23.30;71.90
48998;DHT22;34807;51.456;7.244;2022-07-22T12:55:13;23.40;71.50
48998;DHT22;34807;51.456;7.244;2022-07-22T12:57:39;23.60;71.50
48998;DHT22;34807;51.456;7.244;2022-07-22T13:00:05;23.60;71.40
48998;DHT22;34807;51.456;7.244;2022-07-22T13:02:30;23.60;71.40
48998;DHT22;34807;51.456;7.244;2022-07-22T13:04:56;23.60;71.80
48998;DHT22;34807;51.456;7.244;2022-07-22T13:07:21;23.60;71.20
48998;DHT22;34807;51.456;7.244;2022-07-22T13:09:47;23.70;71.10
48998;DHT22;34807;51.456;7.244;2022-07-22T13:12:12;23.80;71.00
48998;DHT22;34807;51.456;7.244;2022-07-22T13:14:38;23.80;70.80
48998;DHT22;34807;51.456;7.244;2022-07-22T13:17:03;23.80;70.60
48998;DHT22;34807;51.456;7.244;2022-07-22T13:19:29;23.90;71.00
48998;DHT22;34807;51.456;7.244;2022-07-22T13:21:54;24.10;70.30
48998;DHT22;34807;51.456;7.244;2022-07-22T13:24:20;24.10;70.10
48998;DHT22;34807;51.456;7.244;2022-07-22T13:26:45;24.10;69.90
48998;DHT22;34807;51.456;7.244;2022-07-22T13:29:11;24.20;70.00
48998;DHT22;34807;51.456;7.244;2022-07-22T13:31:37;24.20;69.90
48998;DHT22;34807;51.456;7.244;2022-07-22T13:34:03;24.30;69.70
48998;DHT22;34807;51.456;7.244;2022-07-22T13:36:28;24.20;69.90
48998;DHT22;34807;51.456;7.244;2022-07-22T13:38:57;24.20;70.20
48998;DHT22;34807;51.456;7.244;2022-07-22T13:41:23;24.20;70.50
48998;DHT22;34807;51.456;7.244;2022-07-22T13:43:48;24.20;70.70
48998;DHT22;34807;51.456;7.244;2022-07-22T13:46:14;24.20;70.80
48998;DHT22;34807;51.456;7.244;2022-07-22T13:48:40;24.20;70.80
48998;DHT22;34807;51.456;7.244;2022-07-22T13:51:06;24.30;70.80
48998;DHT22;34807;51.456;7.244;2022-07-22T13:53:31;24.30;70.60
48998;DHT22;34807;51.456;7.244;2022-07-22T13:55:57;24.20;70.60
48998;DHT22;34807;51.456;7.244;2022-07-22T13:58:22;24.30;70.60
48998;DHT22;34807;51.456;7.244;2022-07-22T14:00:48;24.30;70.50
48998;DHT22;34807;51.456;7.244;2022-07-22T14:03:13;24.30;70.30
48998;DHT22;34807;51.456;7.244;2022-07-22T14:05:39;24.40;70.20
48998;DHT22;34807;51.456;7.244;2022-07-22T14:08:04;24.40;70.20
48998;DHT22;34807;51.456;7.244;2022-07-22T14:10:30;24.50;70.20
48998;DHT22;34807;51.456;7.244;2022-07-22T14:12:55;24.50;70.00
48998;DHT22;34807;51.456;7.244;2022-07-22T14:15:21;24.60;69.80
48998;DHT22;34807;51.456;7.244;2022-07-22T14:17:46;24.70;69.70
48998;DHT22;34807;51.456;7.244;2022-07-22T14:20:12;24.90;69.20
48998;DHT22;34807;51.456;7.244;2022-07-22T14:22:37;24.90;68.70
48998;DHT22;34807;51.456;7.244;2022-07-22T14:25:03;25.00;68.70
48998;DHT22;34807;51.456;7.244;2022-07-22T14:27:29;25.10;68.10
48998;DHT22;34807;51.456;7.244;2022-07-22T14:29:54;25.30;67.80
48998;DHT22;34807;51.456;7.244;2022-07-22T14:32:20;25.40;67.50
48998;DHT22;34807;51.456;7.244;2022-07-22T14:34:45;25.40;67.30
48998;DHT22;34807;51.456;7.244;2022-07-22T14:37:11;25.60;67.30
48998;DHT22;34807;51.456;7.244;2022-07-22T14:39:37;25.60;67.30
48998;DHT22;34807;51.456;7.244;2022-07-22T14:42:03;25.70;67.20
48998;DHT22;34807;51.456;7.244;2022-07-22T14:44:28;25.70;67.00
48998;DHT22;34807;51.456;7.244;2022-07-22T14:46:54;25.80;66.90
48998;DHT22;34807;51.456;7.244;2022-07-22T14:49:19;25.90;67.10
48998;DHT22;34807;51.456;7.244;2022-07-22T14:51:45;26.00;67.00
48998;DHT22;34807;51.456;7.244;2022-07-22T14:54:11;26.00;66.70
48998;DHT22;34807;51.456;7.244;2022-07-22T14:56:40;26.10;66.60
48998;DHT22;34807;51.456;7.244;2022-07-22T14:59:06;26.00;66.50
48998;DHT22;34807;51.456;7.244;2022-07-22T15:01:31;26.00;66.60
48998;DHT22;34807;51.456;7.244;2022-07-22T15:03:57;26.00;66.80
48998;DHT22;34807;51.456;7.244;2022-07-22T15:06:22;26.00;66.70
48998;DHT22;34807;51.456;7.244;2022-07-22T15:08:48;26.20;66.70
48998;DHT22;34807;51.456;7.244;2022-07-22T15:11:13;26.30;65.80
48998;DHT22;34807;51.456;7.244;2022-07-22T15:13:39;26.30;66.00
48998;DHT22;34807;51.456;7.244;2022-07-22T15:16:04;26.30;65.80
48998;DHT22;34807;51.456;7.244;2022-07-22T15:18:30;26.30;65.60
48998;DHT22;34807;51.456;7.244;2022-07-22T15:20:55;26.20;65.70
48998;DHT22;34807;51.456;7.244;2022-07-22T15:23:22;26.20;66.00
48998;DHT22;34807;51.456;7.244;2022-07-22T15:25:50;26.20;66.80
48998;DHT22;34807;51.456;7.244;2022-07-22T15:28:16;26.20;66.50
48998;DHT22;34807;51.456;7.244;2022-07-22T15:30:41;26.20;66.40
48998;DHT22;34807;51.456;7.244;2022-07-22T15:33:07;26.20;66.50
48998;DHT22;34807;51.456;7.244;2022-07-22T15:35:32;26.20;66.40
48998;DHT22;34807;51.456;7.244;2022-07-22T15:37:58;26.10;66.40
48998;DHT22;34807;51.456;7.244;2022-07-22T15:40:23;26.10;66.50
48998;DHT22;34807;51.456;7.244;2022-07-22T15:42:49;26.10;66.70
48998;DHT22;34807;51.456;7.244;2022-07-22T15:45:15;26.20;66.70
48998;DHT22;34807;51.456;7.244;2022-07-22T15:47:40;26.40;65.80
48998;DHT22;34807;51.456;7.244;2022-07-22T15:50:06;26.60;65.50